Terminal Aerodrome Forecast
Issued by NWS

Home | Current Version | Previous Version | Text Only | Print | Product List | Glossary On
Versions: 1 2 3 4 5 6 7 8 9 10 11 12 13 14 15
000
FTUS45 KGJT 272341
TAFCNY
TAF
KCNY 272341Z 2800/2824 29020G30KT P6SM SCT100
     FM280400 31009KT P6SM SCT200
     FM281200 28007KT P6SM FEW200
     FM281600 29009KT P6SM VCSH FEW200
     FM281800 30007KT P6SM SCT140=

USA.gov is the U.S. government's official web portal to all federal, state and local government web resources and services.